createdAt,value
2022-11-22T00:01:16.540Z,2.41
2022-11-22T00:03:43.269Z,2.40
2022-11-22T00:06:09.686Z,2.41
2022-11-22T00:08:36.145Z,2.43
2022-11-22T00:11:02.583Z,2.44
2022-11-22T00:13:29.269Z,2.41
2022-11-22T00:16:02.930Z,2.37
2022-11-22T00:18:29.590Z,2.36
2022-11-22T00:20:56.261Z,2.38
2022-11-22T00:23:22.818Z,2.45
2022-11-22T00:25:49.238Z,2.42
2022-11-22T00:28:15.690Z,2.39
2022-11-22T00:30:42.112Z,2.38
2022-11-22T00:33:08.578Z,2.36
2022-11-22T00:35:34.990Z,2.42
2022-11-22T00:38:01.413Z,2.42
2022-11-22T00:40:27.793Z,2.47
2022-11-22T00:42:54.248Z,2.48
2022-11-22T00:45:20.663Z,2.53
2022-11-22T00:47:47.106Z,2.56
2022-11-22T00:50:13.558Z,2.54
2022-11-22T00:52:40.286Z,2.56
2022-11-22T00:55:07.031Z,2.57
2022-11-22T00:57:33.467Z,2.57
2022-11-22T00:59:59.902Z,2.60
2022-11-22T01:02:26.512Z,2.60
2022-11-22T01:04:52.936Z,2.66
2022-11-22T01:07:19.369Z,2.68
2022-11-22T01:09:45.869Z,2.71
2022-11-22T01:12:12.343Z,2.74
2022-11-22T01:14:38.803Z,2.70
2022-11-22T01:17:05.200Z,2.69
2022-11-22T01:19:31.908Z,2.70
2022-11-22T01:21:58.494Z,2.72
2022-11-22T01:24:24.929Z,2.77
2022-11-22T01:26:51.375Z,2.78
2022-11-22T01:29:17.798Z,2.83
2022-11-22T01:31:44.369Z,2.90
2022-11-22T01:34:11.168Z,2.86
2022-11-22T01:36:37.605Z,2.91
2022-11-22T01:39:04.112Z,2.90
2022-11-22T01:41:30.612Z,2.92
2022-11-22T01:43:57.052Z,2.92
2022-11-22T01:46:26.506Z,2.95
2022-11-22T01:48:54.578Z,2.99
2022-11-22T01:51:24.591Z,3.03
2022-11-22T01:53:51.056Z,3.07
2022-11-22T01:56:17.577Z,3.05
2022-11-22T01:58:44.374Z,3.08
2022-11-22T02:01:10.888Z,3.11
2022-11-22T02:03:37.610Z,3.13
2022-11-22T02:06:04.019Z,3.20
2022-11-22T02:08:49.198Z,3.16
2022-11-22T02:11:15.656Z,3.16
2022-11-22T02:13:42.702Z,3.16
2022-11-22T02:16:09.612Z,3.21
2022-11-22T02:18:36.317Z,3.21
2022-11-22T02:21:03.210Z,3.19
2022-11-22T02:23:42.291Z,3.16
2022-11-22T02:26:08.713Z,3.17
2022-11-22T02:28:37.376Z,3.19
2022-11-22T02:31:03.824Z,3.24
2022-11-22T02:33:30.271Z,3.21
2022-11-22T02:35:56.838Z,3.20
2022-11-22T02:38:24.908Z,3.23
2022-11-22T02:40:59.825Z,3.24
2022-11-22T02:43:30.298Z,3.21
2022-11-22T02:46:02.505Z,3.26
2022-11-22T02:48:28.909Z,3.29
2022-11-22T02:50:55.356Z,3.30
2022-11-22T02:53:21.763Z,3.40
2022-11-22T02:55:48.206Z,3.41
2022-11-22T02:58:14.623Z,3.44
2022-11-22T03:00:41.274Z,3.40
2022-11-22T03:03:07.734Z,3.48
2022-11-22T03:05:34.183Z,3.43
2022-11-22T03:08:00.648Z,3.50
2022-11-22T03:10:27.105Z,3.46
2022-11-22T03:12:53.556Z,3.49
2022-11-22T03:15:20.039Z,3.52
2022-11-22T03:17:46.449Z,3.46
2022-11-22T03:20:13.055Z,3.49
2022-11-22T03:22:39.444Z,3.52
2022-11-22T03:25:06.135Z,3.53
2022-11-22T03:27:32.549Z,3.59
2022-11-22T03:29:59.050Z,3.58
2022-11-22T03:32:25.448Z,3.56
2022-11-22T03:34:51.892Z,3.59
2022-11-22T03:37:18.386Z,3.56
2022-11-22T03:39:44.769Z,3.46
2022-11-22T03:42:13.645Z,3.47
2022-11-22T03:44:43.182Z,3.49
2022-11-22T03:47:09.626Z,3.49
2022-11-22T03:49:36.025Z,3.54
2022-11-22T03:52:02.476Z,3.54
2022-11-22T03:54:28.917Z,3.53
2022-11-22T03:56:55.347Z,3.57
2022-11-22T03:59:21.780Z,3.54
2022-11-22T04:01:48.378Z,3.54
2022-11-22T04:04:14.911Z,3.47
2022-11-22T04:06:41.415Z,3.47
2022-11-22T04:09:09.980Z,3.49
2022-11-22T04:11:36.475Z,3.41
2022-11-22T04:14:21.513Z,3.45
2022-11-22T04:16:47.969Z,3.34
2022-11-22T04:19:14.376Z,3.32
2022-11-22T04:21:40.820Z,3.32
2022-11-22T04:24:28.889Z,3.19
2022-11-22T04:26:55.411Z,3.11
2022-11-22T04:29:21.946Z,3.06
2022-11-22T04:32:07.614Z,3.06
2022-11-22T04:34:34.358Z,3.04
2022-11-22T04:37:00.999Z,3.02
2022-11-22T04:39:27.639Z,3.03
2022-11-22T04:42:14.977Z,3.04
2022-11-22T04:44:41.877Z,3.04
2022-11-22T04:47:12.008Z,2.97
2022-11-22T04:49:38.619Z,3.16
2022-11-22T04:52:23.677Z,3.04
2022-11-22T04:54:50.107Z,3.00
2022-11-22T04:57:16.565Z,3.11
2022-11-22T04:59:42.999Z,3.11
2022-11-22T05:02:09.429Z,3.16
2022-11-22T05:04:35.945Z,3.20
2022-11-22T05:07:02.403Z,3.23
2022-11-22T05:09:29.084Z,3.28
2022-11-22T05:11:55.768Z,3.29
2022-11-22T05:14:22.195Z,3.22
2022-11-22T05:16:48.641Z,3.20
2022-11-22T05:19:15.097Z,3.12
2022-11-22T05:21:41.520Z,3.04
2022-11-22T05:24:08.183Z,3.07
2022-11-22T05:26:35.727Z,3.03
2022-11-22T05:29:06.454Z,2.88
2022-11-22T05:31:33.866Z,2.76
2022-11-22T05:34:00.303Z,2.66
2022-11-22T05:36:26.736Z,2.63
2022-11-22T05:38:53.283Z,2.71
2022-11-22T05:41:19.733Z,2.73
2022-11-22T05:43:46.182Z,2.63
2022-11-22T05:46:24.304Z,2.60
2022-11-22T05:48:51.860Z,2.50
2022-11-22T05:51:22.133Z,2.62
2022-11-22T05:53:48.619Z,2.62
2022-11-22T05:56:16.046Z,2.50
2022-11-22T05:58:42.697Z,2.56
2022-11-22T06:01:13.314Z,2.48
2022-11-22T06:03:39.865Z,2.50
2022-11-22T06:06:06.923Z,2.36
2022-11-22T06:08:33.835Z,2.32
2022-11-22T06:11:15.501Z,2.30
2022-11-22T06:13:42.237Z,2.27
2022-11-22T06:16:08.821Z,2.28
2022-11-22T06:18:35.397Z,2.40
2022-11-22T06:21:06.543Z,2.39
2022-11-22T06:23:33.236Z,2.40
2022-11-22T06:26:04.414Z,2.34
2022-11-22T06:28:31.443Z,2.28
2022-11-22T06:31:04.845Z,2.10
2022-11-22T06:33:31.447Z,2.05
2022-11-22T06:36:04.924Z,2.00
2022-11-22T06:38:31.468Z,2.07
2022-11-22T06:41:04.903Z,1.98
2022-11-22T06:43:31.896Z,1.85
2022-11-22T06:45:58.852Z,1.88
2022-11-22T06:48:26.068Z,1.93
2022-11-22T06:50:52.490Z,1.96
2022-11-22T06:53:39.748Z,1.98
2022-11-22T06:56:09.712Z,1.96
2022-11-22T06:58:36.303Z,1.94
2022-11-22T07:01:03.841Z,2.00
2022-11-22T07:03:30.470Z,2.01
2022-11-22T07:05:57.109Z,2.04
2022-11-22T07:08:23.858Z,1.99
2022-11-22T07:10:50.341Z,1.93
2022-11-22T07:13:16.782Z,1.93
2022-11-22T07:15:43.208Z,1.90
2022-11-22T07:18:09.641Z,1.94
2022-11-22T07:20:36.075Z,1.94
2022-11-22T07:23:02.505Z,1.98
2022-11-22T07:25:28.922Z,1.96
2022-11-22T07:27:55.378Z,2.04
2022-11-22T07:30:21.819Z,2.01
2022-11-22T07:32:48.543Z,2.05
2022-11-22T07:35:15.088Z,2.13
2022-11-22T07:37:41.514Z,2.18
2022-11-22T07:40:08.453Z,2.33
2022-11-22T07:42:34.837Z,2.39
2022-11-22T07:45:01.299Z,2.48
2022-11-22T07:47:27.726Z,2.54
2022-11-22T07:49:54.576Z,2.47
2022-11-22T07:52:21.042Z,2.54
2022-11-22T07:54:47.445Z,2.53
2022-11-22T07:57:13.859Z,2.45
2022-11-22T07:59:40.295Z,2.38
2022-11-22T08:02:06.795Z,2.41
2022-11-22T08:04:33.358Z,2.46
2022-11-22T08:06:59.782Z,2.47
2022-11-22T08:09:26.256Z,2.46
2022-11-22T08:11:52.672Z,2.43
2022-11-22T08:14:19.101Z,2.55
2022-11-22T08:16:45.551Z,2.65
2022-11-22T08:19:17.285Z,2.79
2022-11-22T08:21:44.254Z,2.87
2022-11-22T08:24:10.755Z,2.92
2022-11-22T08:26:37.215Z,2.88
2022-11-22T08:29:04.514Z,2.96
2022-11-22T08:31:31.082Z,3.19
2022-11-22T08:33:57.488Z,3.33
2022-11-22T08:36:24.051Z,3.65
2022-11-22T08:38:50.459Z,4.00
2022-11-22T08:41:16.897Z,4.40
2022-11-22T08:43:43.300Z,4.89
2022-11-22T08:46:09.771Z,5.03
2022-11-22T08:48:36.599Z,5.63
2022-11-22T08:51:04.339Z,5.85
2022-11-22T08:53:31.889Z,6.02
2022-11-22T08:56:01.741Z,5.85
2022-11-22T08:58:31.625Z,6.26
2022-11-22T09:00:58.747Z,6.80
2022-11-22T09:03:25.205Z,6.62
2022-11-22T09:08:40.430Z,5.81
2022-11-22T09:11:17.471Z,5.94
2022-11-22T09:13:44.039Z,5.89
2022-11-22T09:16:11.398Z,6.12
2022-11-22T09:18:37.826Z,6.11
2022-11-22T09:21:05.759Z,6.52
2022-11-22T09:23:32.441Z,6.11
2022-11-22T09:25:58.936Z,6.30
2022-11-22T09:28:26.131Z,5.80
2022-11-22T09:30:58.594Z,5.32
2022-11-22T09:33:25.050Z,5.03
2022-11-22T09:35:51.484Z,4.60
2022-11-22T09:38:17.909Z,4.36
2022-11-22T09:40:47.421Z,4.24
2022-11-22T09:43:19.462Z,4.20
2022-11-22T09:46:06.144Z,4.26
2022-11-22T09:48:49.539Z,4.39
2022-11-22T09:51:17.678Z,4.43
2022-11-22T09:53:45.872Z,4.31
2022-11-22T09:56:13.022Z,4.20
2022-11-22T09:58:43.694Z,4.19
2022-11-22T10:01:10.203Z,4.40
2022-11-22T10:03:51.816Z,4.36
2022-11-22T10:06:20.831Z,4.35
2022-11-22T10:09:10.749Z,4.11
2022-11-22T10:11:41.214Z,4.28
2022-11-22T10:14:39.997Z,4.49
2022-11-22T10:17:06.402Z,4.83
2022-11-22T10:19:38.263Z,5.53
2022-11-22T10:22:10.181Z,5.16
2022-11-22T10:24:36.623Z,4.98
2022-11-22T10:27:03.054Z,5.31
2022-11-22T10:29:32.653Z,4.80
2022-11-22T10:32:19.980Z,4.82
2022-11-22T10:34:49.366Z,4.81
2022-11-22T10:37:22.748Z,5.30
2022-11-22T10:39:55.352Z,5.52
2022-11-22T10:42:37.118Z,4.83
2022-11-22T10:45:06.666Z,4.88
2022-11-22T10:47:39.307Z,4.95
2022-11-22T10:50:13.587Z,4.92
2022-11-22T10:52:44.551Z,4.88
2022-11-22T10:55:19.011Z,5.04
2022-11-22T10:57:45.427Z,5.08
2022-11-22T11:00:19.296Z,4.97
2022-11-22T11:02:48.791Z,4.93
2022-11-22T11:05:16.599Z,4.97
2022-11-22T11:07:44.194Z,5.09
2022-11-22T11:10:29.515Z,5.18
2022-11-22T11:13:01.789Z,5.21
2022-11-22T11:15:55.766Z,4.96
2022-11-22T11:18:25.304Z,4.98
2022-11-22T11:20:53.739Z,5.07
2022-11-22T11:23:20.431Z,5.22
2022-11-22T11:25:47.861Z,5.38
2022-11-22T11:28:27.322Z,5.40
2022-11-22T11:30:58.417Z,5.39
2022-11-22T11:33:26.504Z,5.16
2022-11-22T11:35:55.241Z,5.08
2022-11-22T11:38:27.983Z,4.89
2022-11-22T11:40:54.405Z,4.88
2022-11-22T11:43:21.730Z,4.91
2022-11-22T11:45:48.417Z,4.94
2022-11-22T11:48:30.650Z,4.88
2022-11-22T11:51:17.101Z,4.85
2022-11-22T11:53:51.165Z,4.80
2022-11-22T11:56:18.763Z,4.76
2022-11-22T11:58:49.933Z,4.83
2022-11-22T12:01:18.339Z,5.02
2022-11-22T12:03:50.641Z,4.86
2022-11-22T12:06:17.354Z,4.92
2022-11-22T12:08:43.849Z,4.95
2022-11-22T12:11:12.214Z,4.82
2022-11-22T12:14:18.532Z,4.72
2022-11-22T12:16:34.264Z,4.85
2022-11-22T12:19:05.861Z,4.66
2022-11-22T12:21:36.935Z,4.67
2022-11-22T12:24:34.810Z,4.64
2022-11-22T12:26:54.320Z,4.46
2022-11-22T12:29:20.775Z,4.48
2022-11-22T12:32:19.712Z,4.57
2022-11-22T12:34:57.335Z,4.67
2022-11-22T12:37:28.473Z,4.69
2022-11-22T12:39:55.787Z,4.79
2022-11-22T12:42:24.367Z,4.72
2022-11-22T12:44:58.451Z,4.64
2022-11-22T12:47:26.101Z,4.62
2022-11-22T12:49:56.591Z,4.65
2022-11-22T12:52:23.327Z,4.68
2022-11-22T12:54:49.788Z,4.67
2022-11-22T12:57:21.265Z,4.79
2022-11-22T13:00:05.333Z,4.84
2022-11-22T13:02:34.899Z,4.73
2022-11-22T13:05:05.835Z,4.70
2022-11-22T13:07:35.418Z,4.63
2022-11-22T13:10:04.229Z,4.63
2022-11-22T13:12:34.632Z,4.54
2022-11-22T13:15:01.775Z,4.47
2022-11-22T13:17:31.292Z,4.41
2022-11-22T13:19:59.679Z,4.38
2022-11-22T13:22:35.295Z,4.39
2022-11-22T13:25:01.727Z,4.32
2022-11-22T13:27:29.378Z,4.30
2022-11-22T13:29:56.648Z,4.31
2022-11-22T13:32:23.926Z,4.22
2022-11-22T13:35:07.963Z,4.22
2022-11-22T13:37:44.198Z,4.18
2022-11-22T13:40:16.690Z,4.21
2022-11-22T13:42:43.203Z,4.25
2022-11-22T13:45:19.977Z,4.22
2022-11-22T13:47:46.381Z,4.22
2022-11-22T13:50:31.650Z,4.20
2022-11-22T13:52:58.062Z,4.27
2022-11-22T13:55:29.047Z,4.19
2022-11-22T13:57:55.575Z,4.18
2022-11-22T14:00:22.122Z,4.17
2022-11-22T14:02:52.154Z,4.20
2022-11-22T14:05:21.734Z,4.18
2022-11-22T14:07:51.919Z,4.17
2022-11-22T14:10:29.228Z,4.19
2022-11-22T14:12:58.682Z,4.19
2022-11-22T14:15:27.451Z,4.17
2022-11-22T14:18:03.120Z,4.20
2022-11-22T14:20:44.767Z,4.24
2022-11-22T14:23:29.997Z,4.24
2022-11-22T14:26:19.858Z,4.22
2022-11-22T14:28:59.642Z,4.22
2022-11-22T14:31:32.774Z,4.24
2022-11-22T14:34:18.151Z,4.23
2022-11-22T14:36:44.922Z,4.19
2022-11-22T14:39:33.691Z,4.21
2022-11-22T14:42:00.351Z,4.23
2022-11-22T14:44:27.926Z,4.22
2022-11-22T14:47:10.346Z,4.25
2022-11-22T14:49:44.327Z,4.22
2022-11-22T14:52:20.873Z,4.20
2022-11-22T14:54:48.695Z,4.23
2022-11-22T14:57:21.710Z,4.23
2022-11-22T14:59:51.159Z,4.26
2022-11-22T15:02:36.550Z,4.29
2022-11-22T15:09:11.672Z,4.36
2022-11-22T15:09:13.689Z,4.32
2022-11-22T15:11:07.450Z,4.26
2022-11-22T15:13:57.233Z,4.30
2022-11-22T15:59:30.571Z,4.24
2022-11-22T16:01:58.319Z,4.22
2022-11-22T16:04:31.376Z,4.23
2022-11-22T16:06:59.386Z,4.18
2022-11-22T16:09:29.131Z,4.17
2022-11-22T16:12:01.265Z,4.16
2022-11-22T16:14:39.957Z,4.16
2022-11-22T16:17:24.782Z,4.18
2022-11-22T16:19:51.260Z,4.20
2022-11-22T16:22:30.973Z,4.20
2022-11-22T16:25:16.165Z,4.18
2022-11-22T16:27:46.423Z,4.26
2022-11-22T16:30:13.062Z,4.24
2022-11-22T16:32:39.489Z,4.21
2022-11-22T16:35:29.166Z,4.17
2022-11-22T16:37:56.209Z,4.06
2022-11-22T16:40:22.629Z,4.06
2022-11-22T16:42:49.062Z,4.14
2022-11-22T16:45:16.354Z,4.10
2022-11-22T16:47:43.237Z,4.08
2022-11-22T16:50:13.488Z,4.01
2022-11-22T16:52:40.458Z,4.01
2022-11-22T16:55:10.403Z,3.99
2022-11-22T16:57:36.831Z,4.00
2022-11-22T17:00:03.430Z,4.00
2022-11-22T17:02:29.895Z,4.01
2022-11-22T17:04:56.306Z,4.01
2022-11-22T17:07:23.040Z,3.97
2022-11-22T17:09:51.093Z,3.93
2022-11-22T17:12:19.605Z,3.88
2022-11-22T17:14:48.488Z,3.87
2022-11-22T17:17:15.147Z,3.85
2022-11-22T17:19:57.012Z,3.86
2022-11-22T17:22:23.508Z,3.88
2022-11-22T17:24:49.906Z,3.84
2022-11-22T17:27:16.366Z,3.84
2022-11-22T17:29:50.206Z,3.85
2022-11-22T17:32:16.960Z,3.84
2022-11-22T17:34:43.392Z,3.84
2022-11-22T17:37:13.140Z,3.82
2022-11-22T17:39:39.841Z,3.82
2022-11-22T17:42:06.801Z,3.87
2022-11-22T17:44:34.160Z,3.86
2022-11-22T17:47:00.661Z,3.89
2022-11-22T17:49:27.406Z,3.89
2022-11-22T17:51:54.053Z,3.84
2022-11-22T17:54:20.502Z,3.90
2022-11-22T17:56:46.984Z,3.90
2022-11-22T17:59:13.401Z,3.86
2022-11-22T18:01:39.930Z,3.86
2022-11-22T18:04:06.389Z,3.85
2022-11-22T18:06:32.869Z,3.91
2022-11-22T18:09:00.362Z,3.89
2022-11-22T18:11:26.838Z,3.89
2022-11-22T18:13:53.295Z,3.88
2022-11-22T18:16:19.812Z,3.89
2022-11-22T18:19:01.791Z,3.97
2022-11-22T18:21:31.933Z,4.01
2022-11-22T18:23:58.722Z,3.94
2022-11-22T18:26:41.651Z,3.92
2022-11-22T18:31:55.409Z,3.94
2022-11-22T18:34:22.510Z,3.98
2022-11-22T18:36:55.464Z,4.00
2022-11-22T18:39:22.936Z,3.98
2022-11-22T18:41:49.394Z,4.01
2022-11-22T18:44:15.867Z,4.00
2022-11-22T18:46:42.323Z,4.00
2022-11-22T18:49:08.948Z,4.01
2022-11-22T18:51:35.420Z,4.00
2022-11-22T18:54:01.889Z,3.98
2022-11-22T18:56:28.442Z,4.02
2022-11-22T18:58:54.882Z,4.05
2022-11-22T19:01:21.880Z,4.03
2022-11-22T19:03:48.379Z,4.02
2022-11-22T19:06:15.503Z,4.01
2022-11-22T19:08:42.166Z,3.99
2022-11-22T19:11:08.657Z,4.06
2022-11-22T19:13:35.715Z,4.05
2022-11-22T19:16:09.162Z,4.04
2022-11-22T19:18:41.287Z,4.11
2022-11-22T19:21:09.427Z,4.12
2022-11-22T19:23:36.106Z,4.08
2022-11-22T19:26:06.317Z,4.07
2022-11-22T19:28:32.969Z,4.09
2022-11-22T19:31:03.315Z,4.04
2022-11-22T19:33:29.811Z,4.03
2022-11-22T19:35:57.084Z,4.03
2022-11-22T19:38:23.565Z,4.08
2022-11-22T19:40:49.964Z,4.11
2022-11-22T19:43:16.762Z,4.08
2022-11-22T19:45:43.410Z,4.10
2022-11-22T19:48:09.830Z,4.13
2022-11-22T19:50:39.375Z,4.16
2022-11-22T19:53:05.916Z,4.11
2022-11-22T19:55:43.630Z,4.14
2022-11-22T19:58:11.817Z,4.11
2022-11-22T20:00:38.282Z,4.12
2022-11-22T20:03:04.697Z,4.09
2022-11-22T20:05:34.336Z,4.04
2022-11-22T20:08:00.775Z,4.12
2022-11-22T20:10:27.311Z,4.09
2022-11-22T20:12:53.746Z,4.05
2022-11-22T20:15:20.207Z,4.06
2022-11-22T20:17:46.655Z,4.15
2022-11-22T20:20:13.057Z,4.20
2022-11-22T20:22:39.490Z,4.18
2022-11-22T20:25:06.235Z,4.17
2022-11-22T20:27:32.822Z,4.24
2022-11-22T20:30:01.380Z,4.23
2022-11-22T20:32:30.946Z,4.28
2022-11-22T20:34:57.570Z,4.32
2022-11-22T20:37:24.034Z,4.32
2022-11-22T20:39:50.484Z,4.33
2022-11-22T20:42:46.827Z,4.38
2022-11-22T20:45:08.469Z,4.34
2022-11-22T20:47:35.216Z,4.31
2022-11-22T20:50:01.734Z,4.33
2022-11-22T20:52:28.210Z,4.31
2022-11-22T20:54:54.777Z,4.31
2022-11-22T20:57:21.408Z,4.35
2022-11-22T20:59:47.819Z,4.38
2022-11-22T21:02:14.288Z,4.41
2022-11-22T21:04:40.783Z,4.41
2022-11-22T21:07:07.276Z,4.37
2022-11-22T21:09:33.793Z,4.35
2022-11-22T21:12:00.267Z,4.37
2022-11-22T21:14:26.693Z,4.41
2022-11-22T21:16:53.202Z,4.48
2022-11-22T21:19:19.753Z,4.41
2022-11-22T21:21:46.248Z,4.38
2022-11-22T21:24:13.626Z,4.38
2022-11-22T21:26:40.694Z,4.37
2022-11-22T21:29:15.949Z,4.39
2022-11-22T21:31:43.085Z,4.38
2022-11-22T21:34:09.574Z,4.35
2022-11-22T21:36:35.991Z,4.33
2022-11-22T21:39:02.402Z,4.35
2022-11-22T21:41:44.080Z,4.35
2022-11-22T21:44:11.012Z,4.37
2022-11-22T21:46:37.752Z,4.37
2022-11-22T21:49:04.168Z,4.39
2022-11-22T21:51:31.930Z,4.43
2022-11-22T21:53:59.041Z,4.43
2022-11-22T21:56:25.876Z,4.42
2022-11-22T21:58:52.302Z,4.42
2022-11-22T22:01:18.880Z,4.46
2022-11-22T22:03:45.335Z,4.44
2022-11-22T22:06:11.810Z,4.50
2022-11-22T22:08:38.616Z,4.52
2022-11-22T22:11:05.533Z,4.51
2022-11-22T22:13:32.345Z,4.50
2022-11-22T22:15:59.522Z,4.53
2022-11-22T22:18:29.746Z,4.50
2022-11-22T22:21:02.824Z,4.54
2022-11-22T22:23:29.453Z,4.55
2022-11-22T22:26:00.059Z,4.51
2022-11-22T22:28:30.309Z,4.53
2022-11-22T22:31:06.141Z,4.51
2022-11-22T22:33:32.819Z,4.48
2022-11-22T22:35:59.640Z,4.52
2022-11-22T22:38:26.161Z,4.55
2022-11-22T22:40:54.074Z,4.53
2022-11-22T22:43:20.914Z,4.50
2022-11-22T22:45:47.326Z,4.53
2022-11-22T22:48:13.781Z,4.50
2022-11-22T22:50:40.189Z,4.52
2022-11-22T22:53:06.623Z,4.51
2022-11-22T22:55:33.054Z,4.52
2022-11-22T22:58:00.069Z,4.52
2022-11-22T23:00:26.513Z,4.53
2022-11-22T23:02:53.255Z,4.51
2022-11-22T23:05:19.805Z,4.53
2022-11-22T23:07:46.358Z,4.53
2022-11-22T23:10:12.815Z,4.53
2022-11-22T23:12:39.281Z,4.53
2022-11-22T23:15:06.057Z,4.52
2022-11-22T23:17:32.563Z,4.55
2022-11-22T23:19:58.967Z,4.51
2022-11-22T23:22:26.139Z,4.53
2022-11-22T23:24:52.685Z,4.52
2022-11-22T23:27:19.173Z,4.53
2022-11-22T23:29:45.594Z,4.53
2022-11-22T23:32:12.003Z,4.51
2022-11-22T23:34:38.412Z,4.54
2022-11-22T23:37:04.843Z,4.51
2022-11-22T23:39:31.506Z,4.55
2022-11-22T23:41:58.251Z,4.52
2022-11-22T23:44:24.731Z,4.55
2022-11-22T23:46:51.189Z,4.59
2022-11-22T23:49:17.585Z,4.59
2022-11-22T23:51:44.065Z,4.57
2022-11-22T23:54:10.454Z,4.61
2022-11-22T23:56:37.204Z,4.57
2022-11-22T23:59:05.141Z,4.57
